sensor_id;sensor_type;location;lat;lon;timestamp;P1;durP1;ratioP1;P2;durP2;ratioP2
38132;SDS011;23948;43.252;26.572;2023-05-10T00:01:45;28.80;;;18.00;;
38132;SDS011;23948;43.252;26.572;2023-05-10T00:04:10;25.55;;;14.75;;
38132;SDS011;23948;43.252;26.572;2023-05-10T00:06:36;20.08;;;13.23;;
38132;SDS011;23948;43.252;26.572;2023-05-10T00:09:01;36.80;;;13.07;;
38132;SDS011;23948;43.252;26.572;2023-05-10T00:11:26;90.72;;;13.93;;
38132;SDS011;23948;43.252;26.572;2023-05-10T00:13:51;22.63;;;11.77;;
38132;SDS011;23948;43.252;26.572;2023-05-10T00:16:17;16.13;;;11.95;;
38132;SDS011;23948;43.252;26.572;2023-05-10T00:18:42;18.98;;;12.50;;
38132;SDS011;23948;43.252;26.572;2023-05-10T00:21:07;93.30;;;13.70;;
38132;SDS011;23948;43.252;26.572;2023-05-10T00:23:33;27.70;;;12.38;;
38132;SDS011;23948;43.252;26.572;2023-05-10T00:25:58;46.17;;;13.23;;
38132;SDS011;23948;43.252;26.572;2023-05-10T00:28:23;32.88;;;14.32;;
38132;SDS011;23948;43.252;26.572;2023-05-10T00:30:48;24.63;;;12.35;;
38132;SDS011;23948;43.252;26.572;2023-05-10T00:33:14;60.35;;;13.38;;
38132;SDS011;23948;43.252;26.572;2023-05-10T00:35:39;21.45;;;11.32;;
38132;SDS011;23948;43.252;26.572;2023-05-10T00:38:05;35.10;;;12.23;;
38132;SDS011;23948;43.252;26.572;2023-05-10T00:40:30;45.30;;;13.57;;
38132;SDS011;23948;43.252;26.572;2023-05-10T00:42:56;21.98;;;11.90;;
38132;SDS011;23948;43.252;26.572;2023-05-10T00:45:22;31.52;;;12.38;;
38132;SDS011;23948;43.252;26.572;2023-05-10T00:47:47;18.15;;;12.35;;
38132;SDS011;23948;43.252;26.572;2023-05-10T00:50:13;15.88;;;11.70;;
38132;SDS011;23948;43.252;26.572;2023-05-10T00:52:39;14.85;;;11.88;;
38132;SDS011;23948;43.252;26.572;2023-05-10T00:55:04;20.83;;;13.80;;
38132;SDS011;23948;43.252;26.572;2023-05-10T00:57:30;34.15;;;15.25;;
38132;SDS011;23948;43.252;26.572;2023-05-10T00:59:56;16.98;;;13.45;;
38132;SDS011;23948;43.252;26.572;2023-05-10T01:02:21;22.85;;;14.75;;
38132;SDS011;23948;43.252;26.572;2023-05-10T01:04:47;20.13;;;14.20;;
38132;SDS011;23948;43.252;26.572;2023-05-10T01:07:12;20.17;;;13.63;;
38132;SDS011;23948;43.252;26.572;2023-05-10T01:09:38;30.33;;;14.52;;
38132;SDS011;23948;43.252;26.572;2023-05-10T01:12:03;21.25;;;14.60;;
38132;SDS011;23948;43.252;26.572;2023-05-10T01:14:31;21.77;;;14.75;;
38132;SDS011;23948;43.252;26.572;2023-05-10T01:16:57;23.33;;;14.68;;
38132;SDS011;23948;43.252;26.572;2023-05-10T01:19:23;22.25;;;14.95;;
38132;SDS011;23948;43.252;26.572;2023-05-10T01:34:34;41.05;;;18.13;;
38132;SDS011;23948;43.252;26.572;2023-05-10T01:37:07;25.92;;;16.35;;
38132;SDS011;23948;43.252;26.572;2023-05-10T01:42:09;21.00;;;14.25;;
38132;SDS011;23948;43.252;26.572;2023-05-10T01:49:34;17.65;;;13.30;;
38132;SDS011;23948;43.252;26.572;2023-05-10T01:52:12;17.45;;;13.73;;
38132;SDS011;23948;43.252;26.572;2023-05-10T01:54:41;19.08;;;13.30;;
38132;SDS011;23948;43.252;26.572;2023-05-10T01:57:07;33.97;;;13.15;;
38132;SDS011;23948;43.252;26.572;2023-05-10T01:59:35;23.30;;;13.55;;
38132;SDS011;23948;43.252;26.572;2023-05-10T02:02:04;18.92;;;13.32;;
38132;SDS011;23948;43.252;26.572;2023-05-10T02:04:29;22.25;;;12.65;;
38132;SDS011;23948;43.252;26.572;2023-05-10T02:06:55;18.65;;;12.77;;
38132;SDS011;23948;43.252;26.572;2023-05-10T02:09:21;19.63;;;12.20;;
38132;SDS011;23948;43.252;26.572;2023-05-10T02:11:48;17.15;;;12.32;;
38132;SDS011;23948;43.252;26.572;2023-05-10T02:14:14;72.25;;;13.77;;
38132;SDS011;23948;43.252;26.572;2023-05-10T02:16:40;15.77;;;11.65;;
38132;SDS011;23948;43.252;26.572;2023-05-10T02:19:06;45.85;;;11.43;;
38132;SDS011;23948;43.252;26.572;2023-05-10T02:21:33;18.45;;;12.45;;
38132;SDS011;23948;43.252;26.572;2023-05-10T02:23:59;26.17;;;13.82;;
38132;SDS011;23948;43.252;26.572;2023-05-10T02:26:25;26.90;;;14.52;;
38132;SDS011;23948;43.252;26.572;2023-05-10T02:28:51;46.08;;;22.13;;
38132;SDS011;23948;43.252;26.572;2023-05-10T02:31:17;44.65;;;22.67;;
38132;SDS011;23948;43.252;26.572;2023-05-10T02:33:43;31.60;;;18.35;;
38132;SDS011;23948;43.252;26.572;2023-05-10T02:36:09;27.67;;;15.45;;
38132;SDS011;23948;43.252;26.572;2023-05-10T02:38:35;26.02;;;13.40;;
38132;SDS011;23948;43.252;26.572;2023-05-10T02:41:01;20.58;;;12.77;;
38132;SDS011;23948;43.252;26.572;2023-05-10T02:43:27;21.30;;;13.45;;
38132;SDS011;23948;43.252;26.572;2023-05-10T02:45:55;20.23;;;12.43;;
38132;SDS011;23948;43.252;26.572;2023-05-10T02:48:20;20.05;;;11.50;;
38132;SDS011;23948;43.252;26.572;2023-05-10T02:50:45;17.92;;;11.43;;
38132;SDS011;23948;43.252;26.572;2023-05-10T02:53:18;16.60;;;10.90;;
38132;SDS011;23948;43.252;26.572;2023-05-10T02:55:44;20.52;;;10.60;;
38132;SDS011;23948;43.252;26.572;2023-05-10T02:58:14;15.57;;;9.50;;
38132;SDS011;23948;43.252;26.572;2023-05-10T03:00:39;15.52;;;10.02;;
38132;SDS011;23948;43.252;26.572;2023-05-10T03:03:04;14.20;;;9.73;;
38132;SDS011;23948;43.252;26.572;2023-05-10T03:05:30;19.40;;;11.15;;
38132;SDS011;23948;43.252;26.572;2023-05-10T03:07:55;18.13;;;11.73;;
38132;SDS011;23948;43.252;26.572;2023-05-10T03:10:22;16.27;;;10.27;;
38132;SDS011;23948;43.252;26.572;2023-05-10T03:15:32;20.37;;;13.07;;
38132;SDS011;23948;43.252;26.572;2023-05-10T03:18:04;28.23;;;16.02;;
38132;SDS011;23948;43.252;26.572;2023-05-10T03:20:32;27.05;;;15.43;;
38132;SDS011;23948;43.252;26.572;2023-05-10T03:25:54;18.10;;;12.48;;
38132;SDS011;23948;43.252;26.572;2023-05-10T03:28:20;17.38;;;10.40;;
38132;SDS011;23948;43.252;26.572;2023-05-10T03:30:46;15.05;;;8.88;;
38132;SDS011;23948;43.252;26.572;2023-05-10T03:33:11;15.80;;;9.40;;
38132;SDS011;23948;43.252;26.572;2023-05-10T03:35:38;15.15;;;9.10;;
38132;SDS011;23948;43.252;26.572;2023-05-10T03:38:03;22.80;;;10.73;;
38132;SDS011;23948;43.252;26.572;2023-05-10T03:40:29;15.25;;;10.13;;
38132;SDS011;23948;43.252;26.572;2023-05-10T03:42:56;18.90;;;10.60;;
38132;SDS011;23948;43.252;26.572;2023-05-10T03:45:21;18.77;;;11.75;;
38132;SDS011;23948;43.252;26.572;2023-05-10T03:47:47;23.25;;;11.68;;
38132;SDS011;23948;43.252;26.572;2023-05-10T03:50:12;18.00;;;11.60;;
38132;SDS011;23948;43.252;26.572;2023-05-10T03:52:37;22.65;;;11.43;;
38132;SDS011;23948;43.252;26.572;2023-05-10T03:55:04;15.02;;;11.10;;
38132;SDS011;23948;43.252;26.572;2023-05-10T03:57:29;20.55;;;11.18;;
38132;SDS011;23948;43.252;26.572;2023-05-10T03:59:55;19.13;;;10.27;;
38132;SDS011;23948;43.252;26.572;2023-05-10T04:02:20;15.55;;;9.70;;
38132;SDS011;23948;43.252;26.572;2023-05-10T04:04:45;21.55;;;9.80;;
38132;SDS011;23948;43.252;26.572;2023-05-10T04:07:10;12.65;;;8.77;;
38132;SDS011;23948;43.252;26.572;2023-05-10T04:09:36;13.77;;;9.18;;
38132;SDS011;23948;43.252;26.572;2023-05-10T04:12:01;14.30;;;9.38;;
38132;SDS011;23948;43.252;26.572;2023-05-10T04:14:27;13.52;;;8.70;;
38132;SDS011;23948;43.252;26.572;2023-05-10T04:16:52;13.70;;;8.80;;
38132;SDS011;23948;43.252;26.572;2023-05-10T04:19:17;16.83;;;9.93;;
38132;SDS011;23948;43.252;26.572;2023-05-10T04:21:43;19.15;;;10.52;;
38132;SDS011;23948;43.252;26.572;2023-05-10T04:24:08;20.02;;;10.40;;
38132;SDS011;23948;43.252;26.572;2023-05-10T04:26:33;19.00;;;10.95;;
38132;SDS011;23948;43.252;26.572;2023-05-10T04:28:59;14.38;;;8.90;;
38132;SDS011;23948;43.252;26.572;2023-05-10T04:31:24;18.85;;;11.35;;
38132;SDS011;23948;43.252;26.572;2023-05-10T04:33:49;16.98;;;11.15;;
38132;SDS011;23948;43.252;26.572;2023-05-10T04:36:15;17.80;;;10.45;;
38132;SDS011;23948;43.252;26.572;2023-05-10T04:38:40;13.43;;;9.90;;
38132;SDS011;23948;43.252;26.572;2023-05-10T04:41:06;18.80;;;11.23;;
38132;SDS011;23948;43.252;26.572;2023-05-10T04:43:32;18.20;;;12.32;;
38132;SDS011;23948;43.252;26.572;2023-05-10T04:45:57;19.23;;;12.05;;
38132;SDS011;23948;43.252;26.572;2023-05-10T04:48:22;15.43;;;10.45;;
38132;SDS011;23948;43.252;26.572;2023-05-10T04:50:48;18.17;;;12.43;;
38132;SDS011;23948;43.252;26.572;2023-05-10T04:53:13;18.15;;;11.90;;
38132;SDS011;23948;43.252;26.572;2023-05-10T04:55:38;16.95;;;11.02;;
38132;SDS011;23948;43.252;26.572;2023-05-10T04:58:04;15.02;;;10.60;;
38132;SDS011;23948;43.252;26.572;2023-05-10T05:00:29;20.08;;;10.55;;
38132;SDS011;23948;43.252;26.572;2023-05-10T05:02:54;20.20;;;11.68;;
38132;SDS011;23948;43.252;26.572;2023-05-10T05:05:20;16.63;;;11.13;;
38132;SDS011;23948;43.252;26.572;2023-05-10T05:07:45;20.60;;;11.73;;
38132;SDS011;23948;43.252;26.572;2023-05-10T05:10:10;24.65;;;12.93;;
38132;SDS011;23948;43.252;26.572;2023-05-10T05:12:36;19.88;;;12.63;;
38132;SDS011;23948;43.252;26.572;2023-05-10T05:15:01;24.00;;;13.15;;
38132;SDS011;23948;43.252;26.572;2023-05-10T05:17:29;18.63;;;13.60;;
38132;SDS011;23948;43.252;26.572;2023-05-10T05:19:55;22.50;;;15.75;;
38132;SDS011;23948;43.252;26.572;2023-05-10T05:22:20;20.05;;;15.02;;
38132;SDS011;23948;43.252;26.572;2023-05-10T05:24:52;16.98;;;13.77;;
38132;SDS011;23948;43.252;26.572;2023-05-10T05:27:17;28.85;;;14.25;;
38132;SDS011;23948;43.252;26.572;2023-05-10T05:29:42;19.88;;;13.63;;
38132;SDS011;23948;43.252;26.572;2023-05-10T05:32:08;20.65;;;13.27;;
38132;SDS011;23948;43.252;26.572;2023-05-10T05:34:33;18.80;;;12.90;;
38132;SDS011;23948;43.252;26.572;2023-05-10T05:36:58;17.30;;;12.27;;
38132;SDS011;23948;43.252;26.572;2023-05-10T05:39:24;22.10;;;12.77;;
38132;SDS011;23948;43.252;26.572;2023-05-10T05:41:49;17.65;;;12.18;;
38132;SDS011;23948;43.252;26.572;2023-05-10T05:44:14;16.30;;;12.05;;
38132;SDS011;23948;43.252;26.572;2023-05-10T05:46:39;17.55;;;13.40;;
38132;SDS011;23948;43.252;26.572;2023-05-10T05:49:05;18.30;;;11.98;;
38132;SDS011;23948;43.252;26.572;2023-05-10T05:51:30;20.38;;;11.05;;
38132;SDS011;23948;43.252;26.572;2023-05-10T05:53:56;17.50;;;10.90;;
38132;SDS011;23948;43.252;26.572;2023-05-10T05:56:21;15.05;;;10.15;;
38132;SDS011;23948;43.252;26.572;2023-05-10T05:58:52;18.52;;;11.55;;
38132;SDS011;23948;43.252;26.572;2023-05-10T06:01:17;26.42;;;11.90;;
38132;SDS011;23948;43.252;26.572;2023-05-10T06:03:43;16.80;;;11.63;;
38132;SDS011;23948;43.252;26.572;2023-05-10T06:06:08;16.73;;;9.32;;
38132;SDS011;23948;43.252;26.572;2023-05-10T06:08:33;13.32;;;8.63;;
38132;SDS011;23948;43.252;26.572;2023-05-10T06:10:59;16.70;;;11.38;;
38132;SDS011;23948;43.252;26.572;2023-05-10T06:13:24;12.15;;;7.95;;
38132;SDS011;23948;43.252;26.572;2023-05-10T06:15:50;11.52;;;7.55;;
38132;SDS011;23948;43.252;26.572;2023-05-10T06:18:16;15.63;;;8.65;;
38132;SDS011;23948;43.252;26.572;2023-05-10T06:20:41;11.65;;;8.43;;
38132;SDS011;23948;43.252;26.572;2023-05-10T06:23:07;10.75;;;7.70;;
38132;SDS011;23948;43.252;26.572;2023-05-10T06:25:32;17.63;;;12.05;;
38132;SDS011;23948;43.252;26.572;2023-05-10T06:27:57;14.70;;;7.00;;
38132;SDS011;23948;43.252;26.572;2023-05-10T06:30:23;10.18;;;6.07;;
38132;SDS011;23948;43.252;26.572;2023-05-10T06:32:52;11.35;;;6.43;;
38132;SDS011;23948;43.252;26.572;2023-05-10T06:35:17;11.70;;;5.75;;
38132;SDS011;23948;43.252;26.572;2023-05-10T06:37:42;9.05;;;6.35;;
38132;SDS011;23948;43.252;26.572;2023-05-10T06:40:08;9.73;;;6.10;;
38132;SDS011;23948;43.252;26.572;2023-05-10T06:42:34;8.73;;;5.30;;
38132;SDS011;23948;43.252;26.572;2023-05-10T06:44:59;12.52;;;5.15;;
38132;SDS011;23948;43.252;26.572;2023-05-10T06:47:24;10.38;;;4.78;;
38132;SDS011;23948;43.252;26.572;2023-05-10T06:49:50;10.35;;;6.22;;
38132;SDS011;23948;43.252;26.572;2023-05-10T06:52:15;11.15;;;7.13;;
38132;SDS011;23948;43.252;26.572;2023-05-10T06:54:40;9.55;;;4.95;;
38132;SDS011;23948;43.252;26.572;2023-05-10T06:57:06;9.70;;;4.35;;
38132;SDS011;23948;43.252;26.572;2023-05-10T06:59:31;7.55;;;4.25;;
38132;SDS011;23948;43.252;26.572;2023-05-10T07:01:56;8.18;;;4.20;;
38132;SDS011;23948;43.252;26.572;2023-05-10T07:04:22;7.38;;;3.95;;
38132;SDS011;23948;43.252;26.572;2023-05-10T07:06:47;7.82;;;3.55;;
38132;SDS011;23948;43.252;26.572;2023-05-10T07:09:14;8.23;;;3.10;;
38132;SDS011;23948;43.252;26.572;2023-05-10T07:11:39;11.48;;;3.90;;
38132;SDS011;23948;43.252;26.572;2023-05-10T07:14:05;5.15;;;3.10;;
38132;SDS011;23948;43.252;26.572;2023-05-10T07:16:31;5.93;;;3.60;;
38132;SDS011;23948;43.252;26.572;2023-05-10T07:18:56;8.40;;;3.80;;
38132;SDS011;23948;43.252;26.572;2023-05-10T07:21:22;10.45;;;3.80;;
38132;SDS011;23948;43.252;26.572;2023-05-10T07:23:49;5.63;;;3.97;;
38132;SDS011;23948;43.252;26.572;2023-05-10T07:26:14;6.38;;;3.53;;
38132;SDS011;23948;43.252;26.572;2023-05-10T07:28:40;7.75;;;3.38;;
38132;SDS011;23948;43.252;26.572;2023-05-10T07:31:05;5.47;;;2.92;;
38132;SDS011;23948;43.252;26.572;2023-05-10T07:33:33;6.55;;;3.20;;
38132;SDS011;23948;43.252;26.572;2023-05-10T07:36:02;6.93;;;3.15;;
38132;SDS011;23948;43.252;26.572;2023-05-10T07:38:33;5.85;;;3.15;;
38132;SDS011;23948;43.252;26.572;2023-05-10T07:40:58;4.88;;;3.03;;
38132;SDS011;23948;43.252;26.572;2023-05-10T07:43:23;8.05;;;3.85;;
38132;SDS011;23948;43.252;26.572;2023-05-10T07:45:48;7.32;;;2.92;;
38132;SDS011;23948;43.252;26.572;2023-05-10T07:48:17;7.05;;;2.72;;
38132;SDS011;23948;43.252;26.572;2023-05-10T07:50:45;7.20;;;3.22;;
38132;SDS011;23948;43.252;26.572;2023-05-10T07:53:10;4.63;;;2.58;;
38132;SDS011;23948;43.252;26.572;2023-05-10T07:55:36;4.05;;;2.30;;
38132;SDS011;23948;43.252;26.572;2023-05-10T07:58:04;4.05;;;2.17;;
38132;SDS011;23948;43.252;26.572;2023-05-10T08:00:29;6.93;;;2.85;;
38132;SDS011;23948;43.252;26.572;2023-05-10T08:02:57;5.28;;;2.40;;
38132;SDS011;23948;43.252;26.572;2023-05-10T08:05:23;5.20;;;2.55;;
38132;SDS011;23948;43.252;26.572;2023-05-10T08:07:48;6.57;;;2.60;;
38132;SDS011;23948;43.252;26.572;2023-05-10T08:10:13;5.10;;;2.45;;
38132;SDS011;23948;43.252;26.572;2023-05-10T08:12:39;4.82;;;2.50;;
38132;SDS011;23948;43.252;26.572;2023-05-10T08:15:04;5.97;;;2.60;;
38132;SDS011;23948;43.252;26.572;2023-05-10T08:17:30;7.20;;;2.95;;
38132;SDS011;23948;43.252;26.572;2023-05-10T08:19:55;7.90;;;4.10;;
38132;SDS011;23948;43.252;26.572;2023-05-10T08:22:21;7.43;;;2.80;;
38132;SDS011;23948;43.252;26.572;2023-05-10T08:24:46;5.50;;;3.42;;
38132;SDS011;23948;43.252;26.572;2023-05-10T08:27:12;5.63;;;3.47;;
38132;SDS011;23948;43.252;26.572;2023-05-10T08:29:37;5.90;;;3.05;;
38132;SDS011;23948;43.252;26.572;2023-05-10T08:32:03;7.13;;;3.53;;
38132;SDS011;23948;43.252;26.572;2023-05-10T08:34:28;9.60;;;3.35;;
38132;SDS011;23948;43.252;26.572;2023-05-10T08:36:53;5.05;;;2.78;;
38132;SDS011;23948;43.252;26.572;2023-05-10T08:39:18;6.60;;;2.63;;
38132;SDS011;23948;43.252;26.572;2023-05-10T08:41:44;5.80;;;2.58;;
38132;SDS011;23948;43.252;26.572;2023-05-10T08:44:09;4.28;;;2.60;;
38132;SDS011;23948;43.252;26.572;2023-05-10T08:46:35;5.72;;;2.58;;
38132;SDS011;23948;43.252;26.572;2023-05-10T08:49:04;4.18;;;2.58;;
38132;SDS011;23948;43.252;26.572;2023-05-10T08:51:31;7.97;;;3.13;;
38132;SDS011;23948;43.252;26.572;2023-05-10T08:53:58;6.97;;;2.47;;
38132;SDS011;23948;43.252;26.572;2023-05-10T08:56:23;4.88;;;2.25;;
38132;SDS011;23948;43.252;26.572;2023-05-10T08:58:52;7.10;;;2.92;;
38132;SDS011;23948;43.252;26.572;2023-05-10T09:01:23;3.58;;;2.05;;
38132;SDS011;23948;43.252;26.572;2023-05-10T09:03:49;5.15;;;2.50;;
38132;SDS011;23948;43.252;26.572;2023-05-10T09:06:20;6.28;;;2.40;;
38132;SDS011;23948;43.252;26.572;2023-05-10T09:08:45;4.68;;;2.70;;
38132;SDS011;23948;43.252;26.572;2023-05-10T09:11:13;4.43;;;2.80;;
38132;SDS011;23948;43.252;26.572;2023-05-10T09:13:41;7.88;;;3.60;;
38132;SDS011;23948;43.252;26.572;2023-05-10T09:16:10;6.05;;;3.28;;
38132;SDS011;23948;43.252;26.572;2023-05-10T09:18:35;6.72;;;2.80;;
38132;SDS011;23948;43.252;26.572;2023-05-10T09:21:03;4.72;;;2.50;;
38132;SDS011;23948;43.252;26.572;2023-05-10T09:23:29;6.70;;;3.30;;
38132;SDS011;23948;43.252;26.572;2023-05-10T09:26:06;6.00;;;3.20;;
38132;SDS011;23948;43.252;26.572;2023-05-10T09:28:49;6.65;;;2.90;;
38132;SDS011;23948;43.252;26.572;2023-05-10T09:31:15;4.65;;;2.95;;
38132;SDS011;23948;43.252;26.572;2023-05-10T09:33:46;3.95;;;2.70;;
38132;SDS011;23948;43.252;26.572;2023-05-10T09:36:12;5.97;;;2.95;;
38132;SDS011;23948;43.252;26.572;2023-05-10T09:38:51;5.20;;;3.47;;
38132;SDS011;23948;43.252;26.572;2023-05-10T09:41:22;5.32;;;3.30;;
38132;SDS011;23948;43.252;26.572;2023-05-10T09:43:48;7.03;;;3.40;;
38132;SDS011;23948;43.252;26.572;2023-05-10T09:46:14;6.53;;;3.55;;
38132;SDS011;23948;43.252;26.572;2023-05-10T09:48:43;6.75;;;3.53;;
38132;SDS011;23948;43.252;26.572;2023-05-10T09:51:24;5.72;;;3.65;;
38132;SDS011;23948;43.252;26.572;2023-05-10T09:56:33;5.93;;;3.20;;
38132;SDS011;23948;43.252;26.572;2023-05-10T10:01:32;6.93;;;3.15;;
38132;SDS011;23948;43.252;26.572;2023-05-10T10:04:08;6.35;;;3.67;;
38132;SDS011;23948;43.252;26.572;2023-05-10T10:06:37;8.90;;;3.30;;
38132;SDS011;23948;43.252;26.572;2023-05-10T10:09:06;5.55;;;3.53;;
38132;SDS011;23948;43.252;26.572;2023-05-10T10:11:40;6.30;;;3.40;;
38132;SDS011;23948;43.252;26.572;2023-05-10T10:14:06;6.78;;;2.85;;
38132;SDS011;23948;43.252;26.572;2023-05-10T10:16:34;8.45;;;3.38;;
38132;SDS011;23948;43.252;26.572;2023-05-10T10:18:59;6.97;;;3.40;;
38132;SDS011;23948;43.252;26.572;2023-05-10T10:21:25;5.80;;;3.08;;
38132;SDS011;23948;43.252;26.572;2023-05-10T10:23:51;5.75;;;3.40;;
38132;SDS011;23948;43.252;26.572;2023-05-10T10:26:19;9.82;;;3.47;;
38132;SDS011;23948;43.252;26.572;2023-05-10T10:31:33;4.97;;;3.60;;
38132;SDS011;23948;43.252;26.572;2023-05-10T10:34:00;6.88;;;3.97;;
38132;SDS011;23948;43.252;26.572;2023-05-10T10:36:45;9.48;;;4.80;;
38132;SDS011;23948;43.252;26.572;2023-05-10T10:39:11;6.35;;;3.75;;
38132;SDS011;23948;43.252;26.572;2023-05-10T10:41:40;5.32;;;3.65;;
38132;SDS011;23948;43.252;26.572;2023-05-10T10:44:24;6.57;;;3.58;;
38132;SDS011;23948;43.252;26.572;2023-05-10T10:49:27;10.60;;;3.95;;
38132;SDS011;23948;43.252;26.572;2023-05-10T10:54:36;8.57;;;3.53;;
38132;SDS011;23948;43.252;26.572;2023-05-10T10:57:12;8.25;;;4.22;;
38132;SDS011;23948;43.252;26.572;2023-05-10T10:59:44;6.32;;;3.47;;
38132;SDS011;23948;43.252;26.572;2023-05-10T11:02:10;6.05;;;3.10;;
38132;SDS011;23948;43.252;26.572;2023-05-10T11:04:42;4.75;;;3.17;;
38132;SDS011;23948;43.252;26.572;2023-05-10T11:07:18;5.25;;;3.17;;
38132;SDS011;23948;43.252;26.572;2023-05-10T11:09:43;5.65;;;3.30;;
38132;SDS011;23948;43.252;26.572;2023-05-10T11:12:09;7.72;;;3.28;;
38132;SDS011;23948;43.252;26.572;2023-05-10T11:14:34;8.60;;;3.10;;
38132;SDS011;23948;43.252;26.572;2023-05-10T11:17:00;5.88;;;3.20;;
38132;SDS011;23948;43.252;26.572;2023-05-10T11:19:27;8.65;;;3.92;;
38132;SDS011;23948;43.252;26.572;2023-05-10T11:24:30;6.28;;;3.10;;
38132;SDS011;23948;43.252;26.572;2023-05-10T11:26:55;10.57;;;3.13;;
38132;SDS011;23948;43.252;26.572;2023-05-10T11:29:21;5.35;;;2.67;;
38132;SDS011;23948;43.252;26.572;2023-05-10T11:31:47;6.05;;;3.17;;
38132;SDS011;23948;43.252;26.572;2023-05-10T11:34:23;7.18;;;2.75;;
38132;SDS011;23948;43.252;26.572;2023-05-10T11:36:55;4.75;;;2.70;;
38132;SDS011;23948;43.252;26.572;2023-05-10T11:39:20;7.25;;;3.92;;
38132;SDS011;23948;43.252;26.572;2023-05-10T11:41:49;8.07;;;3.78;;
38132;SDS011;23948;43.252;26.572;2023-05-10T11:44:34;7.38;;;3.47;;
38132;SDS011;23948;43.252;26.572;2023-05-10T11:47:00;9.20;;;3.78;;
38132;SDS011;23948;43.252;26.572;2023-05-10T11:49:25;5.07;;;2.85;;
38132;SDS011;23948;43.252;26.572;2023-05-10T11:51:51;10.32;;;4.70;;
38132;SDS011;23948;43.252;26.572;2023-05-10T11:54:16;6.47;;;3.17;;
38132;SDS011;23948;43.252;26.572;2023-05-10T11:56:41;4.20;;;2.55;;
38132;SDS011;23948;43.252;26.572;2023-05-10T11:59:07;7.93;;;2.92;;
38132;SDS011;23948;43.252;26.572;2023-05-10T12:01:33;11.70;;;6.38;;
38132;SDS011;23948;43.252;26.572;2023-05-10T12:03:58;6.70;;;2.67;;
38132;SDS011;23948;43.252;26.572;2023-05-10T12:06:28;6.20;;;3.03;;
38132;SDS011;23948;43.252;26.572;2023-05-10T12:08:54;8.02;;;3.08;;
38132;SDS011;23948;43.252;26.572;2023-05-10T12:11:20;5.03;;;2.35;;
38132;SDS011;23948;43.252;26.572;2023-05-10T12:13:49;9.25;;;4.10;;
38132;SDS011;23948;43.252;26.572;2023-05-10T12:16:18;9.30;;;5.00;;
38132;SDS011;23948;43.252;26.572;2023-05-10T12:18:44;6.70;;;3.15;;
38132;SDS011;23948;43.252;26.572;2023-05-10T12:21:13;5.45;;;2.78;;
38132;SDS011;23948;43.252;26.572;2023-05-10T12:23:38;8.60;;;3.22;;
38132;SDS011;23948;43.252;26.572;2023-05-10T12:26:04;5.50;;;3.60;;
38132;SDS011;23948;43.252;26.572;2023-05-10T12:28:30;3.97;;;2.40;;
38132;SDS011;23948;43.252;26.572;2023-05-10T12:30:57;6.60;;;2.30;;
38132;SDS011;23948;43.252;26.572;2023-05-10T12:33:22;6.10;;;2.92;;
38132;SDS011;23948;43.252;26.572;2023-05-10T12:35:48;5.78;;;2.97;;
38132;SDS011;23948;43.252;26.572;2023-05-10T12:38:32;5.13;;;2.45;;
38132;SDS011;23948;43.252;26.572;2023-05-10T12:40:59;4.50;;;2.63;;
38132;SDS011;23948;43.252;26.572;2023-05-10T12:43:24;7.55;;;2.50;;
38132;SDS011;23948;43.252;26.572;2023-05-10T12:45:50;6.43;;;3.60;;
38132;SDS011;23948;43.252;26.572;2023-05-10T12:48:15;4.85;;;2.38;;
38132;SDS011;23948;43.252;26.572;2023-05-10T12:50:41;5.18;;;2.17;;
38132;SDS011;23948;43.252;26.572;2023-05-10T12:53:06;8.85;;;2.40;;
38132;SDS011;23948;43.252;26.572;2023-05-10T12:55:31;4.57;;;2.10;;
38132;SDS011;23948;43.252;26.572;2023-05-10T12:57:56;5.90;;;2.05;;
38132;SDS011;23948;43.252;26.572;2023-05-10T13:00:22;6.00;;;2.10;;
38132;SDS011;23948;43.252;26.572;2023-05-10T13:02:47;4.22;;;2.20;;
38132;SDS011;23948;43.252;26.572;2023-05-10T13:05:12;8.73;;;2.60;;
38132;SDS011;23948;43.252;26.572;2023-05-10T13:07:38;3.45;;;2.20;;
38132;SDS011;23948;43.252;26.572;2023-05-10T13:10:04;4.05;;;2.17;;
38132;SDS011;23948;43.252;26.572;2023-05-10T13:12:29;3.08;;;1.92;;
38132;SDS011;23948;43.252;26.572;2023-05-10T13:14:55;4.85;;;2.08;;
38132;SDS011;23948;43.252;26.572;2023-05-10T13:17:20;6.78;;;1.90;;
38132;SDS011;23948;43.252;26.572;2023-05-10T13:19:45;5.05;;;2.15;;
38132;SDS011;23948;43.252;26.572;2023-05-10T13:22:10;4.13;;;2.05;;
38132;SDS011;23948;43.252;26.572;2023-05-10T13:24:36;14.38;;;2.45;;
38132;SDS011;23948;43.252;26.572;2023-05-10T13:27:01;3.83;;;1.85;;
38132;SDS011;23948;43.252;26.572;2023-05-10T13:29:27;5.53;;;2.60;;
38132;SDS011;23948;43.252;26.572;2023-05-10T13:31:52;4.15;;;1.98;;
38132;SDS011;23948;43.252;26.572;2023-05-10T13:34:17;4.80;;;2.10;;
38132;SDS011;23948;43.252;26.572;2023-05-10T13:36:45;3.85;;;2.20;;
38132;SDS011;23948;43.252;26.572;2023-05-10T13:39:10;9.38;;;2.40;;
38132;SDS011;23948;43.252;26.572;2023-05-10T13:41:36;7.35;;;2.40;;
38132;SDS011;23948;43.252;26.572;2023-05-10T13:44:02;5.82;;;2.78;;
38132;SDS011;23948;43.252;26.572;2023-05-10T13:46:28;6.40;;;2.53;;
38132;SDS011;23948;43.252;26.572;2023-05-10T13:48:53;5.82;;;2.45;;
38132;SDS011;23948;43.252;26.572;2023-05-10T13:51:19;4.40;;;2.45;;
38132;SDS011;23948;43.252;26.572;2023-05-10T13:53:44;6.00;;;2.70;;
38132;SDS011;23948;43.252;26.572;2023-05-10T13:59:02;4.68;;;2.70;;
38132;SDS011;23948;43.252;26.572;2023-05-10T14:01:28;6.07;;;2.55;;
38132;SDS011;23948;43.252;26.572;2023-05-10T14:03:53;4.50;;;2.40;;
38132;SDS011;23948;43.252;26.572;2023-05-10T14:06:18;5.38;;;2.30;;
38132;SDS011;23948;43.252;26.572;2023-05-10T14:08:44;3.95;;;2.58;;
38132;SDS011;23948;43.252;26.572;2023-05-10T14:11:09;4.93;;;2.20;;
38132;SDS011;23948;43.252;26.572;2023-05-10T14:13:34;6.28;;;2.50;;
38132;SDS011;23948;43.252;26.572;2023-05-10T14:16:00;4.93;;;2.40;;
38132;SDS011;23948;43.252;26.572;2023-05-10T14:18:26;5.70;;;2.22;;
38132;SDS011;23948;43.252;26.572;2023-05-10T14:20:51;4.68;;;2.20;;
38132;SDS011;23948;43.252;26.572;2023-05-10T14:23:17;6.85;;;2.30;;
38132;SDS011;23948;43.252;26.572;2023-05-10T14:25:42;5.22;;;2.22;;
38132;SDS011;23948;43.252;26.572;2023-05-10T14:28:07;5.13;;;2.13;;
38132;SDS011;23948;43.252;26.572;2023-05-10T14:30:33;5.28;;;2.35;;
38132;SDS011;23948;43.252;26.572;2023-05-10T14:33:01;4.80;;;2.70;;
38132;SDS011;23948;43.252;26.572;2023-05-10T14:35:48;7.70;;;2.50;;
38132;SDS011;23948;43.252;26.572;2023-05-10T14:38:13;4.75;;;2.38;;
38132;SDS011;23948;43.252;26.572;2023-05-10T14:40:38;9.48;;;2.28;;
38132;SDS011;23948;43.252;26.572;2023-05-10T14:43:04;4.85;;;2.22;;
38132;SDS011;23948;43.252;26.572;2023-05-10T14:45:30;4.68;;;2.20;;
38132;SDS011;23948;43.252;26.572;2023-05-10T14:47:56;5.22;;;2.35;;
38132;SDS011;23948;43.252;26.572;2023-05-10T14:50:21;6.57;;;2.42;;
38132;SDS011;23948;43.252;26.572;2023-05-10T14:55:49;6.15;;;2.30;;
38132;SDS011;23948;43.252;26.572;2023-05-10T14:58:14;5.75;;;2.70;;
38132;SDS011;23948;43.252;26.572;2023-05-10T15:00:40;5.40;;;2.78;;
38132;SDS011;23948;43.252;26.572;2023-05-10T15:03:05;13.07;;;3.65;;
38132;SDS011;23948;43.252;26.572;2023-05-10T15:05:31;5.35;;;3.10;;
38132;SDS011;23948;43.252;26.572;2023-05-10T15:07:56;7.30;;;2.85;;